createdAt,value
2022-10-20T00:00:35.088Z,11.90
2022-10-20T00:03:02.939Z,12.00
2022-10-20T00:05:30.776Z,12.00
2022-10-20T00:07:59.929Z,12.10
2022-10-20T00:10:27.703Z,12.00
2022-10-20T00:12:55.505Z,11.80
2022-10-20T00:15:23.394Z,11.80
2022-10-20T00:17:51.155Z,11.80
2022-10-20T00:20:19.061Z,12.00
2022-10-20T00:22:46.844Z,12.00
2022-10-20T00:25:16.193Z,12.10
2022-10-20T00:27:44.126Z,12.10
2022-10-20T00:30:12.573Z,12.00
2022-10-20T00:32:40.434Z,12.10
2022-10-20T00:35:09.088Z,11.90
2022-10-20T00:37:36.958Z,11.60
2022-10-20T00:40:05.329Z,11.50
2022-10-20T00:42:34.773Z,11.40
2022-10-20T00:45:03.053Z,11.30
2022-10-20T00:47:40.696Z,11.20
2022-10-20T00:50:13.447Z,11.10
2022-10-20T00:52:42.601Z,11.00
2022-10-20T00:55:12.671Z,10.90
2022-10-20T00:57:43.531Z,10.80
2022-10-20T01:00:12.495Z,10.70
2022-10-20T01:02:40.373Z,10.50
2022-10-20T01:05:09.519Z,10.70
2022-10-20T01:07:37.731Z,10.60
2022-10-20T01:10:07.484Z,10.50
2022-10-20T01:12:45.872Z,10.50
2022-10-20T01:15:21.223Z,10.60
2022-10-20T01:17:56.196Z,10.60
2022-10-20T01:20:55.801Z,10.60
2022-10-20T01:23:48.840Z,10.40
2022-10-20T01:26:41.778Z,10.10
2022-10-20T01:29:16.879Z,10.10
2022-10-20T01:31:51.713Z,9.90
2022-10-20T01:34:28.815Z,9.70
2022-10-20T01:37:00.624Z,9.80
2022-10-20T01:39:34.312Z,9.80
2022-10-20T01:42:08.009Z,9.90
2022-10-20T01:44:38.939Z,9.80
2022-10-20T01:47:08.305Z,9.80
2022-10-20T01:49:36.219Z,9.70
2022-10-20T01:52:04.806Z,9.50
2022-10-20T01:54:32.576Z,9.60
2022-10-20T01:57:19.913Z,9.50
2022-10-20T02:00:04.693Z,9.50
2022-10-20T02:02:43.415Z,9.30
2022-10-20T02:05:39.705Z,9.00
2022-10-20T02:08:13.618Z,9.10
2022-10-20T02:10:47.472Z,8.90
2022-10-20T02:13:16.957Z,8.80
2022-10-20T02:15:49.382Z,8.60
2022-10-20T02:18:21.673Z,8.40
2022-10-20T02:20:53.488Z,8.40
2022-10-20T02:23:21.355Z,8.30
2022-10-20T02:25:50.417Z,8.20
2022-10-20T02:28:18.751Z,8.20
2022-10-20T02:30:48.824Z,8.10
2022-10-20T02:33:18.068Z,8.20
2022-10-20T02:35:51.426Z,8.10
2022-10-20T02:38:19.265Z,8.10
2022-10-20T02:40:47.391Z,8.20
2022-10-20T02:43:15.193Z,8.40
2022-10-20T02:45:43.011Z,8.50
2022-10-20T02:48:12.181Z,8.40
2022-10-20T02:50:40.066Z,8.40
2022-10-20T02:53:08.117Z,8.40
2022-10-20T02:55:35.915Z,8.40
2022-10-20T02:58:03.704Z,8.60
2022-10-20T03:00:31.946Z,8.40
2022-10-20T03:02:59.733Z,8.40
2022-10-20T03:05:29.339Z,8.50
2022-10-20T03:07:57.290Z,8.70
2022-10-20T03:10:25.119Z,8.70
2022-10-20T03:12:52.911Z,8.70
2022-10-20T03:15:20.680Z,8.70
2022-10-20T03:17:48.473Z,8.70
2022-10-20T03:20:16.367Z,8.60
2022-10-20T03:22:45.517Z,8.60
2022-10-20T03:25:13.400Z,8.50
2022-10-20T03:27:41.172Z,8.80
2022-10-20T03:30:10.253Z,8.90
2022-10-20T03:32:38.440Z,8.70
2022-10-20T03:35:07.274Z,8.70
2022-10-20T03:37:35.069Z,8.60
2022-10-20T03:40:04.558Z,8.60
2022-10-20T03:42:32.351Z,8.40
2022-10-20T03:45:00.164Z,8.30
2022-10-20T03:47:27.941Z,8.10
2022-10-20T03:49:55.803Z,8.00
2022-10-20T03:52:23.603Z,7.90
2022-10-20T03:54:51.723Z,8.10
2022-10-20T03:57:22.643Z,8.20
2022-10-20T03:59:50.431Z,8.40
2022-10-20T04:02:29.493Z,8.50
2022-10-20T04:04:57.287Z,8.50
2022-10-20T04:07:25.172Z,8.50
2022-10-20T04:09:53.329Z,8.40
2022-10-20T04:12:22.574Z,8.50
2022-10-20T04:14:50.483Z,8.60
2022-10-20T04:17:18.340Z,8.60
2022-10-20T04:19:46.399Z,8.50
2022-10-20T04:22:14.316Z,8.40
2022-10-20T04:24:42.250Z,8.00
2022-10-20T04:27:10.148Z,8.00
2022-10-20T04:29:39.449Z,7.90
2022-10-20T04:32:07.339Z,7.80
2022-10-20T04:34:36.460Z,7.90
2022-10-20T04:37:04.638Z,7.90
2022-10-20T04:39:32.526Z,7.90
2022-10-20T04:42:00.823Z,7.90
2022-10-20T04:44:28.681Z,7.90
2022-10-20T04:46:57.830Z,7.90
2022-10-20T04:49:25.818Z,8.00
2022-10-20T04:51:57.401Z,8.10
2022-10-20T04:54:28.570Z,8.00
2022-10-20T04:56:57.021Z,8.00
2022-10-20T04:59:25.149Z,7.90
2022-10-20T05:01:53.026Z,7.90
2022-10-20T05:04:23.958Z,7.90
2022-10-20T05:06:51.706Z,8.10
2022-10-20T05:09:19.536Z,8.10
2022-10-20T05:11:47.395Z,8.10
2022-10-20T05:14:18.325Z,8.00
2022-10-20T05:16:46.111Z,7.80
2022-10-20T05:19:13.915Z,7.90
2022-10-20T05:21:43.282Z,8.00
2022-10-20T05:24:18.218Z,8.00
2022-10-20T05:26:48.782Z,7.80
2022-10-20T05:29:16.568Z,8.00
2022-10-20T05:31:45.250Z,8.00
2022-10-20T05:34:13.376Z,8.10
2022-10-20T05:36:41.228Z,8.00
2022-10-20T05:39:11.909Z,7.90
2022-10-20T05:41:40.172Z,7.70
2022-10-20T05:44:09.531Z,7.60
2022-10-20T05:46:41.085Z,7.50
2022-10-20T05:49:12.421Z,7.40
2022-10-20T05:51:40.315Z,7.30
2022-10-20T05:54:08.095Z,7.30
2022-10-20T05:56:37.228Z,7.30
2022-10-20T05:59:05.049Z,7.30
2022-10-20T06:01:40.117Z,7.20
2022-10-20T06:04:08.909Z,6.90
2022-10-20T06:06:37.039Z,6.80
2022-10-20T06:09:08.776Z,6.80
2022-10-20T06:11:39.648Z,6.80
2022-10-20T06:14:08.433Z,7.10
2022-10-20T06:16:36.380Z,7.30
2022-10-20T06:19:05.179Z,7.50
2022-10-20T06:21:34.718Z,7.60
2022-10-20T06:24:04.572Z,7.80
2022-10-20T06:26:34.114Z,7.70
2022-10-20T06:29:05.308Z,7.70
2022-10-20T06:31:36.361Z,7.70
2022-10-20T06:34:06.752Z,7.50
2022-10-20T06:36:36.944Z,7.50
2022-10-20T06:39:06.745Z,7.40
2022-10-20T06:41:35.134Z,7.50
2022-10-20T06:44:04.847Z,7.50
2022-10-20T06:46:34.219Z,7.30
2022-10-20T06:49:03.558Z,7.50
2022-10-20T06:51:31.735Z,7.50
2022-10-20T06:54:00.639Z,7.50
2022-10-20T06:56:30.471Z,7.40
2022-10-20T06:58:59.529Z,7.60
2022-10-20T07:01:30.075Z,7.70
2022-10-20T07:04:00.382Z,7.70
2022-10-20T07:06:30.483Z,8.00
2022-10-20T07:08:58.812Z,8.20
2022-10-20T07:11:28.243Z,8.40
2022-10-20T07:13:56.518Z,8.20
2022-10-20T07:16:26.558Z,8.20
2022-10-20T07:18:57.259Z,8.20
2022-10-20T07:21:32.337Z,8.10
2022-10-20T07:24:05.064Z,8.10
2022-10-20T07:26:34.675Z,8.00
2022-10-20T07:29:03.810Z,7.90
2022-10-20T07:31:33.510Z,7.90
2022-10-20T07:34:13.086Z,7.90
2022-10-20T07:36:43.772Z,8.00
2022-10-20T07:39:13.395Z,8.10
2022-10-20T07:41:43.992Z,8.20
2022-10-20T07:44:11.956Z,8.30
2022-10-20T07:46:39.849Z,8.20
2022-10-20T07:51:57.059Z,8.20
2022-10-20T07:54:24.906Z,8.20
2022-10-20T07:56:52.910Z,8.20
2022-10-20T07:59:20.873Z,8.50
2022-10-20T08:01:54.675Z,8.80
2022-10-20T08:04:25.540Z,8.90
2022-10-20T08:06:53.368Z,9.00
2022-10-20T08:09:21.280Z,9.20
2022-10-20T08:11:52.803Z,9.30
2022-10-20T08:14:23.226Z,9.30
2022-10-20T08:16:57.070Z,9.20
2022-10-20T08:19:35.484Z,9.50
2022-10-20T08:22:03.709Z,9.70
2022-10-20T08:24:31.753Z,9.80
2022-10-20T08:27:00.133Z,10.00
2022-10-20T08:29:28.184Z,10.10
2022-10-20T08:31:55.959Z,10.30
2022-10-20T08:34:23.766Z,10.30
2022-10-20T08:36:52.934Z,10.30
2022-10-20T08:39:21.014Z,10.20
2022-10-20T08:42:08.862Z,10.20
2022-10-20T08:44:39.207Z,10.20
2022-10-20T08:47:25.734Z,10.20
2022-10-20T08:49:55.956Z,10.40
2022-10-20T08:52:27.127Z,10.50
2022-10-20T08:54:56.498Z,10.70
2022-10-20T08:57:26.622Z,11.10
2022-10-20T08:59:56.120Z,11.10
2022-10-20T09:02:24.111Z,11.10
2022-10-20T09:04:55.422Z,11.30
2022-10-20T09:07:28.164Z,11.60
2022-10-20T09:10:04.011Z,11.60
2022-10-20T09:12:33.407Z,11.80
2022-10-20T09:15:01.699Z,12.10
2022-10-20T09:17:29.518Z,12.10
2022-10-20T09:20:00.750Z,12.10
2022-10-20T09:22:35.786Z,12.00
2022-10-20T09:25:05.586Z,12.10
2022-10-20T09:27:36.233Z,12.20
2022-10-20T09:30:18.970Z,12.30
2022-10-20T09:32:48.355Z,12.40
2022-10-20T09:35:26.368Z,12.30
2022-10-20T09:37:59.743Z,12.40
2022-10-20T09:40:28.424Z,12.80
2022-10-20T09:42:58.418Z,13.00
2022-10-20T09:45:29.537Z,13.10
2022-10-20T09:48:02.436Z,13.20
2022-10-20T09:50:33.090Z,13.20
2022-10-20T09:53:04.872Z,13.40
2022-10-20T09:55:35.941Z,13.50
2022-10-20T09:58:06.049Z,13.70
2022-10-20T10:00:37.691Z,13.90
2022-10-20T10:03:12.019Z,14.00
2022-10-20T10:05:39.858Z,14.00
2022-10-20T10:08:15.558Z,14.40
2022-10-20T10:10:45.492Z,14.60
2022-10-20T10:13:25.050Z,14.90
2022-10-20T10:16:05.889Z,15.00
2022-10-20T10:18:35.264Z,15.30
2022-10-20T10:21:05.942Z,15.60
2022-10-20T10:23:40.917Z,15.80
2022-10-20T10:26:43.742Z,15.90
2022-10-20T10:29:19.384Z,15.70
2022-10-20T10:31:58.696Z,15.80
2022-10-20T10:34:56.271Z,15.80
2022-10-20T10:37:24.367Z,16.10
2022-10-20T10:39:53.521Z,16.00
2022-10-20T10:42:46.450Z,15.90
2022-10-20T10:45:24.154Z,16.00
2022-10-20T10:48:28.459Z,16.10
2022-10-20T10:51:00.242Z,16.30
2022-10-20T10:53:43.388Z,16.40
2022-10-20T10:56:20.391Z,16.20
2022-10-20T10:58:55.964Z,16.40
2022-10-20T11:01:50.474Z,16.50
2022-10-20T11:04:44.866Z,16.30
2022-10-20T11:07:23.108Z,16.40
2022-10-20T11:10:04.710Z,16.50
2022-10-20T11:12:53.243Z,16.60
2022-10-20T11:15:31.061Z,17.10
2022-10-20T11:18:07.831Z,17.50
2022-10-20T11:20:43.128Z,17.60
2022-10-20T11:23:28.463Z,17.70
2022-10-20T11:26:03.767Z,17.80
2022-10-20T11:28:37.730Z,18.00
2022-10-20T11:31:06.354Z,18.20
2022-10-20T11:33:45.506Z,18.30
2022-10-20T11:36:19.446Z,18.40
2022-10-20T11:38:52.102Z,18.50
2022-10-20T11:41:26.408Z,18.40
2022-10-20T11:44:00.102Z,18.10
2022-10-20T11:46:35.805Z,17.90
2022-10-20T11:49:05.321Z,17.70
2022-10-20T11:51:52.403Z,17.80
2022-10-20T11:54:48.317Z,17.80
2022-10-20T11:57:25.332Z,18.00
2022-10-20T12:00:16.905Z,18.20
2022-10-20T12:03:19.718Z,18.30
2022-10-20T12:06:09.126Z,18.60
2022-10-20T12:09:05.274Z,18.50
2022-10-20T12:11:38.360Z,18.60
2022-10-20T12:14:27.610Z,18.80
2022-10-20T12:17:21.969Z,18.70
2022-10-20T12:19:51.620Z,18.40
2022-10-20T12:22:40.310Z,18.20
2022-10-20T12:25:40.092Z,18.40
2022-10-20T12:28:45.204Z,18.60
2022-10-20T12:31:15.487Z,18.70
2022-10-20T12:34:01.466Z,18.40
2022-10-20T12:36:39.847Z,18.40
2022-10-20T12:39:29.959Z,18.60
2022-10-20T12:42:02.757Z,18.60
2022-10-20T12:44:33.322Z,18.50
2022-10-20T12:47:08.463Z,18.30
2022-10-20T12:49:40.288Z,18.20
2022-10-20T12:52:17.255Z,18.10
2022-10-20T12:54:48.604Z,18.10
2022-10-20T12:57:31.330Z,18.40
2022-10-20T12:59:59.155Z,18.30
2022-10-20T13:02:46.088Z,18.30
2022-10-20T13:05:43.145Z,18.40
2022-10-20T13:08:30.384Z,18.30
2022-10-20T13:11:14.133Z,18.30
2022-10-20T13:13:59.996Z,18.50
2022-10-20T13:16:33.818Z,18.40
2022-10-20T13:19:02.726Z,18.40
2022-10-20T13:21:34.833Z,18.60
2022-10-20T13:24:06.668Z,18.60
2022-10-20T13:26:39.657Z,18.60
2022-10-20T13:29:14.361Z,18.70
2022-10-20T13:31:50.886Z,18.30
2022-10-20T13:34:25.496Z,18.20
2022-10-20T13:37:14.147Z,18.10
2022-10-20T13:39:52.666Z,18.10
2022-10-20T13:42:32.811Z,18.00
2022-10-20T13:45:08.609Z,18.00
2022-10-20T13:47:51.701Z,17.90
2022-10-20T13:50:23.451Z,17.90
2022-10-20T13:52:55.682Z,18.00
2022-10-20T13:55:26.366Z,17.80
2022-10-20T13:57:56.884Z,17.50
2022-10-20T14:00:27.738Z,17.30
2022-10-20T14:03:00.977Z,17.10
2022-10-20T14:05:31.172Z,17.10
2022-10-20T14:08:06.194Z,17.10
2022-10-20T14:10:40.415Z,17.20
2022-10-20T14:13:11.559Z,17.00
2022-10-20T14:15:39.677Z,17.10
2022-10-20T14:18:19.309Z,17.10
2022-10-20T14:20:55.845Z,16.90
2022-10-20T14:23:25.890Z,16.90
2022-10-20T14:25:54.950Z,16.80
2022-10-20T14:28:24.966Z,16.70
2022-10-20T14:30:53.111Z,16.80
2022-10-20T14:33:21.339Z,17.00
2022-10-20T14:35:53.420Z,17.10
2022-10-20T14:38:37.698Z,17.00
2022-10-20T14:41:10.136Z,17.00
2022-10-20T14:43:40.733Z,17.00
2022-10-20T14:46:10.806Z,17.00
2022-10-20T14:48:43.294Z,16.80
2022-10-20T14:51:39.252Z,16.60
2022-10-20T14:54:26.748Z,16.50
2022-10-20T14:56:56.403Z,16.50
2022-10-20T14:59:26.927Z,16.60
2022-10-20T15:02:08.187Z,16.50
2022-10-20T15:04:37.133Z,16.60
2022-10-20T15:07:07.543Z,16.40
2022-10-20T15:09:41.976Z,16.20
2022-10-20T15:12:16.775Z,16.20
2022-10-20T15:14:48.021Z,16.40
2022-10-20T15:17:33.236Z,16.40
2022-10-20T15:20:31.057Z,16.50
2022-10-20T15:23:00.639Z,16.50
2022-10-20T15:25:32.724Z,16.50
2022-10-20T15:28:00.859Z,16.60
2022-10-20T15:30:28.830Z,16.50
2022-10-20T15:32:56.714Z,16.50
2022-10-20T15:35:24.882Z,16.50
2022-10-20T15:37:54.556Z,16.60
2022-10-20T15:40:22.852Z,16.70
2022-10-20T15:42:52.071Z,16.50
2022-10-20T15:45:22.446Z,16.40
2022-10-20T15:47:50.376Z,16.50
2022-10-20T15:50:20.589Z,16.50
2022-10-20T15:52:50.786Z,16.40
2022-10-20T15:55:23.500Z,16.20
2022-10-20T15:57:54.039Z,16.00
2022-10-20T16:00:24.165Z,15.90
2022-10-20T16:02:52.726Z,15.90
2022-10-20T16:05:23.177Z,15.90
2022-10-20T16:07:53.060Z,16.00
2022-10-20T16:10:22.449Z,15.80
2022-10-20T16:12:52.133Z,15.80
2022-10-20T16:15:20.046Z,15.80
2022-10-20T16:20:16.759Z,15.60
2022-10-20T16:22:44.531Z,15.40
2022-10-20T16:25:13.309Z,15.40
2022-10-20T16:27:41.135Z,15.70
2022-10-20T16:30:11.051Z,15.90
2022-10-20T16:32:39.240Z,15.90
2022-10-20T16:35:07.978Z,15.90
2022-10-20T16:37:36.110Z,15.90
2022-10-20T16:40:04.890Z,15.90
2022-10-20T16:42:32.638Z,15.90
2022-10-20T16:45:00.584Z,16.00
2022-10-20T16:47:29.745Z,15.90
2022-10-20T16:49:57.533Z,15.80
2022-10-20T16:52:25.322Z,15.90
2022-10-20T16:54:53.114Z,15.90
2022-10-20T16:57:21.047Z,15.90
2022-10-20T16:59:50.024Z,15.90
2022-10-20T17:02:18.448Z,15.90
2022-10-20T17:04:50.679Z,15.80
2022-10-20T17:07:18.527Z,15.80
2022-10-20T17:09:46.652Z,15.70
2022-10-20T17:12:14.455Z,15.80
2022-10-20T17:14:42.870Z,15.50
2022-10-20T17:17:10.704Z,15.70
2022-10-20T17:19:40.858Z,15.90
2022-10-20T17:24:38.912Z,16.00
2022-10-20T17:27:06.711Z,16.20
2022-10-20T17:29:34.538Z,16.20
2022-10-20T17:32:02.405Z,16.00
2022-10-20T17:34:30.188Z,15.70
2022-10-20T17:36:57.999Z,15.70
2022-10-20T17:39:28.381Z,15.70
2022-10-20T17:41:56.165Z,15.80
2022-10-20T17:44:24.049Z,15.70
2022-10-20T17:46:51.842Z,15.90
2022-10-20T17:49:19.863Z,15.90
2022-10-20T17:51:47.649Z,15.90
2022-10-20T17:54:15.417Z,16.00
2022-10-20T17:56:44.508Z,16.10
2022-10-20T18:01:45.313Z,16.20
2022-10-20T18:04:15.266Z,15.70
2022-10-20T18:06:43.747Z,15.60
2022-10-20T18:09:13.831Z,15.70
2022-10-20T18:11:46.368Z,15.80
2022-10-20T18:14:14.575Z,15.80
2022-10-20T18:16:43.552Z,15.90
2022-10-20T18:19:15.524Z,15.70
2022-10-20T18:21:44.006Z,15.70
2022-10-20T18:24:13.510Z,15.70
2022-10-20T18:26:41.788Z,15.80
2022-10-20T18:29:11.932Z,15.80
2022-10-20T18:31:41.832Z,15.60
2022-10-20T18:34:12.411Z,15.50
2022-10-20T18:36:43.613Z,15.50
2022-10-20T18:39:14.229Z,15.80
2022-10-20T18:41:43.365Z,15.90
2022-10-20T18:44:14.625Z,15.50
2022-10-20T18:46:42.714Z,15.70
2022-10-20T18:49:13.664Z,15.70
2022-10-20T18:51:41.848Z,15.70
2022-10-20T18:54:10.450Z,15.70
2022-10-20T18:56:38.458Z,15.70
2022-10-20T18:59:10.214Z,15.50
2022-10-20T19:01:42.330Z,15.50
2022-10-20T19:04:11.423Z,15.60
2022-10-20T19:06:42.005Z,15.70
2022-10-20T19:09:11.968Z,15.70
2022-10-20T19:11:40.969Z,15.70
2022-10-20T19:14:10.499Z,15.70
2022-10-20T19:16:40.910Z,15.60
2022-10-20T19:19:09.616Z,15.70
2022-10-20T19:21:40.532Z,15.70
2022-10-20T19:24:10.975Z,15.70
2022-10-20T19:26:41.172Z,15.70
2022-10-20T19:29:11.630Z,15.70
2022-10-20T19:31:43.028Z,15.80
2022-10-20T19:34:13.060Z,15.70
2022-10-20T19:36:44.002Z,15.70
2022-10-20T19:39:13.502Z,15.70
2022-10-20T19:41:41.534Z,15.60
2022-10-20T19:44:12.339Z,15.70
2022-10-20T19:46:41.811Z,15.70
2022-10-20T19:49:09.871Z,15.50
2022-10-20T19:51:37.792Z,15.60
2022-10-20T19:54:06.158Z,15.70
2022-10-20T19:56:34.773Z,15.60
2022-10-20T19:59:03.520Z,15.60
2022-10-20T20:01:31.610Z,15.60
2022-10-20T20:04:01.016Z,15.60
2022-10-20T20:06:28.902Z,15.50
2022-10-20T20:08:59.565Z,15.70
2022-10-20T20:11:30.754Z,15.60
2022-10-20T20:14:00.626Z,15.40
2022-10-20T20:16:29.312Z,15.30
2022-10-20T20:18:57.290Z,15.40
2022-10-20T20:21:27.750Z,15.40
2022-10-20T20:24:00.703Z,15.40
2022-10-20T20:26:30.303Z,15.50
2022-10-20T20:28:58.936Z,15.40
2022-10-20T20:31:27.706Z,15.60
2022-10-20T20:33:57.113Z,15.50
2022-10-20T20:36:27.689Z,15.40
2022-10-20T20:38:57.357Z,15.50
2022-10-20T20:41:26.967Z,15.30
2022-10-20T20:43:55.083Z,15.40
2022-10-20T20:46:24.438Z,15.30
2022-10-20T20:48:52.604Z,15.30
2022-10-20T20:51:20.661Z,15.50
2022-10-20T20:53:49.851Z,15.50
2022-10-20T20:56:21.804Z,15.40
2022-10-20T20:58:55.044Z,15.20
2022-10-20T21:01:25.051Z,15.10
2022-10-20T21:03:54.757Z,15.10
2022-10-20T21:06:28.780Z,14.90
2022-10-20T21:09:03.314Z,14.80
2022-10-20T21:11:31.336Z,15.00
2022-10-20T21:13:59.901Z,15.00
2022-10-20T21:16:30.186Z,15.10
2022-10-20T21:19:00.027Z,15.20
2022-10-20T21:21:29.471Z,15.20
2022-10-20T21:23:58.083Z,15.30
2022-10-20T21:26:30.189Z,15.30
2022-10-20T21:28:58.291Z,15.10
2022-10-20T21:31:28.049Z,15.00
2022-10-20T21:33:57.386Z,15.10
2022-10-20T21:36:27.683Z,15.10
2022-10-20T21:38:56.120Z,15.00
2022-10-20T21:41:25.373Z,15.10
2022-10-20T21:43:56.081Z,14.80
2022-10-20T21:46:25.701Z,14.60
2022-10-20T21:48:56.042Z,14.60
2022-10-20T21:51:25.703Z,14.70
2022-10-20T21:53:56.430Z,14.50
2022-10-20T21:56:25.010Z,14.70
2022-10-20T21:58:54.867Z,14.60
2022-10-20T22:01:24.589Z,14.70
2022-10-20T22:03:53.870Z,14.50
2022-10-20T22:06:23.881Z,14.70
2022-10-20T22:08:53.887Z,14.60
2022-10-20T22:11:23.722Z,14.70
2022-10-20T22:13:51.775Z,14.50
2022-10-20T22:16:23.300Z,14.10
2022-10-20T22:18:55.850Z,14.10
2022-10-20T22:21:23.823Z,14.20
2022-10-20T22:23:55.772Z,14.20
2022-10-20T22:26:25.663Z,14.50
2022-10-20T22:28:53.893Z,14.70
2022-10-20T22:31:23.227Z,14.30
2022-10-20T22:33:51.542Z,14.40
2022-10-20T22:36:19.734Z,14.50
2022-10-20T22:38:48.020Z,14.50
2022-10-20T22:41:16.425Z,14.40
2022-10-20T22:43:44.352Z,14.50
2022-10-20T22:46:12.292Z,14.70
2022-10-20T22:48:41.462Z,14.60
2022-10-20T22:51:10.688Z,14.60
2022-10-20T22:53:39.295Z,14.70
2022-10-20T22:56:08.716Z,14.70
2022-10-20T22:58:36.832Z,14.70
2022-10-20T23:01:09.041Z,14.70
2022-10-20T23:03:37.060Z,14.60
2022-10-20T23:06:13.076Z,14.70
2022-10-20T23:08:41.842Z,14.80
2022-10-20T23:11:19.236Z,14.70
2022-10-20T23:13:48.067Z,14.60
2022-10-20T23:16:16.481Z,14.70
2022-10-20T23:18:44.470Z,14.40
2022-10-20T23:21:14.579Z,14.40
2022-10-20T23:23:42.436Z,14.50
2022-10-20T23:26:10.857Z,14.30
2022-10-20T23:28:39.949Z,14.20
2022-10-20T23:31:09.768Z,14.10
2022-10-20T23:33:38.155Z,14.00
2022-10-20T23:36:06.306Z,14.10
2022-10-20T23:38:35.936Z,14.20
2022-10-20T23:41:03.801Z,14.30
2022-10-20T23:43:31.831Z,14.40
2022-10-20T23:45:59.876Z,14.40
2022-10-20T23:48:27.969Z,14.30
2022-10-20T23:50:55.948Z,14.40
2022-10-20T23:53:23.879Z,14.70
2022-10-20T23:55:53.139Z,14.80
2022-10-20T23:58:22.454Z,14.80
